createdAt,value
2019-04-06T00:02:42.527Z,25.92
2019-04-06T00:07:51.598Z,26.58
2019-04-06T00:18:06.910Z,28.11
2019-04-06T00:23:22.280Z,26.00
2019-04-06T00:28:20.918Z,26.86
2019-04-06T00:33:29.642Z,26.70
2019-04-06T00:38:38.579Z,27.03
2019-04-06T00:43:47.061Z,26.41
2019-04-06T00:48:55.882Z,26.84
2019-04-06T00:54:04.285Z,28.00
2019-04-06T00:59:14.952Z,27.21
2019-04-06T01:04:13.468Z,27.27
2019-04-06T01:09:21.861Z,27.82
2019-04-06T01:14:31.166Z,28.59
2019-04-06T01:19:40.057Z,28.58
2019-04-06T01:24:47.454Z,27.44
2019-04-06T01:29:55.847Z,28.05
2019-04-06T01:35:04.907Z,28.46
2019-04-06T01:40:13.449Z,27.11
2019-04-06T01:45:22.117Z,27.42
2019-04-06T01:50:30.576Z,27.64
2019-04-06T01:55:39.743Z,27.51
2019-04-06T02:00:48.110Z,27.51
2019-04-06T02:05:56.929Z,27.50
2019-04-06T02:11:05.440Z,27.04
2019-04-06T02:16:14.516Z,28.18
2019-04-06T02:21:23.442Z,28.38
2019-04-06T02:26:32.367Z,27.66
2019-04-06T02:31:40.936Z,27.25
2019-04-06T02:36:49.549Z,27.47
2019-04-06T02:41:57.961Z,25.97
2019-04-06T02:47:06.846Z,27.13
2019-04-06T02:52:22.935Z,25.53
2019-04-06T02:57:21.378Z,25.62
2019-04-06T03:02:29.749Z,25.85
2019-04-06T03:07:38.642Z,25.96
2019-04-06T03:12:47.531Z,26.01
2019-04-06T03:18:00.401Z,26.04
2019-04-06T03:22:58.730Z,26.46
2019-04-06T03:28:07.404Z,25.81
2019-04-06T03:33:16.923Z,25.94
2019-04-06T03:38:25.931Z,26.22
2019-04-06T03:43:34.639Z,27.43
2019-04-06T03:48:43.015Z,27.59
2019-04-06T03:53:51.977Z,28.33
2019-04-06T03:59:00.299Z,27.57
2019-04-06T04:04:09.181Z,27.67
2019-04-06T04:09:17.600Z,29.97
2019-04-06T04:14:25.125Z,29.45
2019-04-06T04:19:33.530Z,29.88
2019-04-06T04:24:42.288Z,30.46
2019-04-06T04:29:50.774Z,30.62
2019-04-06T04:34:59.573Z,31.64
2019-04-06T04:40:07.906Z,31.68
2019-04-06T04:45:16.719Z,30.37
2019-04-06T04:50:25.209Z,31.16
2019-04-06T04:55:40.144Z,30.38
2019-04-06T05:00:38.702Z,29.51
2019-04-06T05:05:45.047Z,30.97
2019-04-06T05:10:54.930Z,31.12
2019-04-06T05:16:03.949Z,28.51
2019-04-06T05:21:12.934Z,28.77
2019-04-06T05:26:21.160Z,28.89
2019-04-06T05:31:30.891Z,28.67
2019-04-06T05:36:39.937Z,29.10
2019-04-06T05:41:50.492Z,29.83
2019-04-06T05:46:56.796Z,28.81
2019-04-06T05:52:05.677Z,27.69
2019-04-06T05:57:14.169Z,26.94
2019-04-06T06:02:22.912Z,26.90
2019-04-06T06:07:31.356Z,27.17
2019-04-06T06:12:41.275Z,25.18
2019-04-06T06:17:49.646Z,24.83
2019-04-06T06:23:06.403Z,24.21
2019-04-06T06:28:13.830Z,23.82
2019-04-06T06:33:17.390Z,24.12
2019-04-06T06:38:16.372Z,23.21
2019-04-06T06:43:23.396Z,22.59
2019-04-06T06:48:38.718Z,22.64
2019-04-06T06:53:36.909Z,22.06
2019-04-06T06:58:45.673Z,22.13
2019-04-06T07:03:56.029Z,22.29
2019-04-06T07:08:55.037Z,23.16
2019-04-06T07:14:04.708Z,22.99
2019-04-06T07:19:12.246Z,23.08
2019-04-06T07:24:21.212Z,22.95
2019-04-06T07:29:37.404Z,23.07
2019-04-06T07:34:35.741Z,23.17
2019-04-06T07:39:44.235Z,23.23
2019-04-06T07:44:53.378Z,21.76
2019-04-06T07:50:02.407Z,22.69
2019-04-06T07:55:11.823Z,23.99
2019-04-06T08:00:24.263Z,24.88
2019-04-06T08:05:23.641Z,24.01
2019-04-06T08:10:32.580Z,23.98
2019-04-06T08:15:41.504Z,23.62
2019-04-06T08:20:49.567Z,24.07
2019-04-06T08:25:58.425Z,24.96
2019-04-06T08:31:07.696Z,23.66
2019-04-06T08:36:16.855Z,24.21
2019-04-06T08:41:25.462Z,23.61
2019-04-06T08:46:35.646Z,24.39
2019-04-06T08:51:34.764Z,24.45
2019-04-06T08:56:44.430Z,24.22
2019-04-06T09:01:52.462Z,25.49
2019-04-06T09:07:02.100Z,23.98
2019-04-06T09:12:17.289Z,23.94
2019-04-06T09:17:16.642Z,23.52
2019-04-06T09:22:27.350Z,24.15
2019-04-06T09:27:26.169Z,23.92
2019-04-06T09:32:35.713Z,24.53
2019-04-06T09:37:45.030Z,24.80
2019-04-06T09:42:53.949Z,23.98
2019-04-06T09:48:11.643Z,23.84
2019-04-06T09:53:09.837Z,23.91
2019-04-06T09:58:18.792Z,23.91
2019-04-06T10:03:28.074Z,22.48
2019-04-06T10:08:36.990Z,24.15
2019-04-06T10:13:46.332Z,27.47
2019-04-06T10:18:58.959Z,24.87
2019-04-06T10:23:59.104Z,25.37
2019-04-06T10:28:58.248Z,25.11
2019-04-06T10:34:07.299Z,26.33
2019-04-06T10:39:17.276Z,32.32
2019-04-06T10:44:26.635Z,26.87
2019-04-06T10:49:36.872Z,26.85
2019-04-06T10:54:35.090Z,27.77
2019-04-06T10:59:44.427Z,27.85
2019-04-06T11:04:53.982Z,27.71
2019-04-06T11:10:03.217Z,27.73
2019-04-06T11:15:12.566Z,26.94
2019-04-06T11:20:21.007Z,26.31
2019-04-06T11:25:30.356Z,24.73
2019-04-06T11:30:39.524Z,25.93
2019-04-06T11:35:48.957Z,25.41
2019-04-06T11:40:58.157Z,26.18
2019-04-06T11:46:07.729Z,25.61
2019-04-06T11:51:16.863Z,27.21
2019-04-06T11:56:27.320Z,26.93
2019-04-06T12:01:26.315Z,26.38
2019-04-06T12:06:35.357Z,22.50
2019-04-06T12:11:45.110Z,23.70
2019-04-06T12:16:53.239Z,19.33
2019-04-06T12:22:02.134Z,21.99
2019-04-06T12:27:11.038Z,20.48
2019-04-06T12:32:20.482Z,22.34
2019-04-06T12:37:29.487Z,21.73
2019-04-06T12:42:38.680Z,16.80
2019-04-06T12:47:47.450Z,14.78
2019-04-06T12:52:55.317Z,16.12
2019-04-06T12:58:04.499Z,16.34
2019-04-06T13:03:12.185Z,14.52
2019-04-06T13:13:28.643Z,14.98
2019-04-06T13:18:37.720Z,16.29
2019-04-06T13:23:47.418Z,15.48
2019-04-06T13:28:56.066Z,13.81
2019-04-06T13:34:08.604Z,14.93
2019-04-06T13:39:07.494Z,14.65
2019-04-06T13:44:16.489Z,14.20
2019-04-06T13:49:27.913Z,12.75
2019-04-06T13:54:26.822Z,15.44
2019-04-06T13:59:35.829Z,13.04
2019-04-06T14:04:45.462Z,12.89
2019-04-06T14:09:54.530Z,12.08
2019-04-06T14:15:05.519Z,12.28
2019-04-06T14:20:04.057Z,11.86
2019-04-06T14:25:14.815Z,12.75
2019-04-06T14:30:13.753Z,12.90
2019-04-06T14:35:22.662Z,12.98
2019-04-06T14:40:34.565Z,17.89
2019-04-06T14:45:45.430Z,15.96
2019-04-06T14:50:33.076Z,17.91
2019-04-06T14:55:42.670Z,18.73
2019-04-06T15:00:50.842Z,16.70
2019-04-06T15:06:00.547Z,15.83
2019-04-06T15:11:09.628Z,14.92
2019-04-06T15:16:19.128Z,14.24
2019-04-06T15:21:28.014Z,16.46
2019-04-06T15:26:39.511Z,15.00
2019-04-06T15:31:48.106Z,14.41
2019-04-06T15:36:47.461Z,16.24
2019-04-06T15:41:57.482Z,16.11
2019-04-06T15:47:11.712Z,15.99
2019-04-06T15:52:14.391Z,15.22
2019-04-06T15:57:19.777Z,15.32
2019-04-06T16:02:29.495Z,15.66
2019-04-06T16:07:38.221Z,16.84
2019-04-06T16:12:47.582Z,16.12
2019-04-06T16:17:57.181Z,16.04
2019-04-06T16:23:06.439Z,15.90
2019-04-06T16:28:15.454Z,15.61
2019-04-06T16:33:24.130Z,15.39
2019-04-06T16:38:33.146Z,15.12
2019-04-06T16:43:43.680Z,14.86
2019-04-06T16:48:42.332Z,14.40
2019-04-06T16:53:51.401Z,13.27
2019-04-06T16:59:01.129Z,12.40
2019-04-06T17:04:10.222Z,13.44
2019-04-06T17:09:20.719Z,12.96
2019-04-06T17:14:19.255Z,12.53
2019-04-06T17:19:28.306Z,13.03
2019-04-06T17:24:37.736Z,13.24
2019-04-06T17:29:47.120Z,13.90
2019-04-06T17:34:57.126Z,14.88
2019-04-06T17:40:04.844Z,15.55
2019-04-06T17:45:14.317Z,15.02
2019-04-06T17:50:23.075Z,14.18
2019-04-06T18:00:39.821Z,15.11
2019-04-06T18:05:49.597Z,15.43
2019-04-06T18:10:59.283Z,15.94
2019-04-06T18:16:08.954Z,15.06
2019-04-06T18:21:21.708Z,15.05
2019-04-06T18:26:19.504Z,15.50
2019-04-06T18:31:29.112Z,15.06
2019-04-06T18:36:37.826Z,14.33
2019-04-06T18:41:46.548Z,11.78
2019-04-06T18:47:03.864Z,12.24
2019-04-06T18:52:02.947Z,11.59
2019-04-06T18:57:11.719Z,11.44
2019-04-06T19:02:22.573Z,11.29
2019-04-06T19:07:22.694Z,10.95
2019-04-06T19:12:21.733Z,11.95
2019-04-06T19:17:30.725Z,12.35
2019-04-06T19:22:40.970Z,12.78
2019-04-06T19:27:49.012Z,12.98
2019-04-06T19:32:58.859Z,12.93
2019-04-06T19:38:06.798Z,13.31
2019-04-06T19:43:17.963Z,14.60
2019-04-06T19:48:24.835Z,14.44
2019-04-06T19:53:34.559Z,16.59
2019-04-06T19:58:42.678Z,16.43
2019-04-06T20:03:52.674Z,18.03
2019-04-06T20:09:00.532Z,18.76
2019-04-06T20:14:09.850Z,18.42
2019-04-06T20:24:26.294Z,19.80
2019-04-06T20:29:35.651Z,20.98
2019-04-06T20:34:44.185Z,20.37
2019-04-06T20:39:54.644Z,19.87
2019-04-06T20:44:53.847Z,19.99
2019-04-06T20:50:03.663Z,20.43
2019-04-06T20:55:12.979Z,20.44
2019-04-06T21:00:12.058Z,19.96
2019-04-06T21:05:21.159Z,20.10
2019-04-06T21:10:30.517Z,19.90
2019-04-06T21:15:43.050Z,19.88
2019-04-06T21:20:41.673Z,20.75
2019-04-06T21:25:50.869Z,20.98
2019-04-06T21:30:59.952Z,21.21
2019-04-06T21:36:09.532Z,21.02
2019-04-06T21:41:22.999Z,20.84
2019-04-06T21:46:21.365Z,20.81
2019-04-06T21:51:29.641Z,20.69
2019-04-06T21:56:38.931Z,20.94
2019-04-06T22:01:47.793Z,21.90
2019-04-06T22:06:57.316Z,22.72
2019-04-06T22:12:06.197Z,22.96
2019-04-06T22:17:15.927Z,22.94
2019-04-06T22:22:23.068Z,23.33
2019-04-06T22:27:33.460Z,22.28
2019-04-06T22:32:32.328Z,22.47
2019-04-06T22:37:41.860Z,23.51
2019-04-06T22:42:50.372Z,24.17
2019-04-06T22:53:06.588Z,23.57
2019-04-06T22:58:15.706Z,24.11
2019-04-06T23:03:25.303Z,24.51
2019-04-06T23:08:32.645Z,23.35
2019-04-06T23:13:42.112Z,23.55
2019-04-06T23:18:50.573Z,24.07
2019-04-06T23:24:02.655Z,24.61
2019-04-06T23:29:08.802Z,23.97
2019-04-06T23:34:18.005Z,24.12
2019-04-06T23:39:26.288Z,24.85
2019-04-06T23:44:34.800Z,24.87
2019-04-06T23:49:48.136Z,24.05
2019-04-06T23:54:47.432Z,24.86
2019-04-06T23:59:56.247Z,24.53
